This is the latest recevied weather packets stored in our database for station/object OK1JIL-13. If no packets are shown the sender has not sent any weather packets the latest 10 day(s).
| Time | Temp. | Humidity | Pressure | Rain* | Wind** | Luminosity | Snow |
|---|---|---|---|---|---|---|---|
| 1777736983 | 21.11° C | 20% | 1022.9 hPa | - | - | - | - |
| 1777736382 | 20.56° C | 20% | 1023 hPa | - | - | - | - |
| 1777735782 | 20.56° C | 20% | 1023 hPa | - | - | - | - |
| 1777735182 | 20° C | 21% | 1023.1 hPa | - | - | - | - |
| 1777734582 | 21.11° C | 21% | 1023.3 hPa | - | - | - | - |
| 1777733982 | 21.67° C | 20% | 1023.5 hPa | - | - | - | - |
| 1777733382 | 21.67° C | 20% | 1023.6 hPa | - | - | - | - |
| 1777732782 | 20.56° C | 21% | 1023.7 hPa | - | - | - | - |
| 1777732182 | 21.67° C | 19% | 1023.8 hPa | - | - | - | - |
| 1777731582 | 22.22° C | 19% | 1023.9 hPa | - | - | - | - |
| 1777730982 | 21.67° C | 20% | 1024 hPa | - | - | - | - |
| 1777730382 | 21.67° C | 20% | 1024 hPa | - | - | - | - |
| 1777729782 | 21.67° C | 21% | 1024 hPa | - | - | - | - |
| 1777729182 | 22.22° C | 19% | 1024.1 hPa | - | - | - | - |
| 1777728582 | 20.56° C | 22% | 1024.2 hPa | - | - | - | - |
| 1777727982 | 20.56° C | 21% | 1024.3 hPa | - | - | - | - |
| 1777727382 | 21.11° C | 19% | 1024.5 hPa | - | - | - | - |
| 1777726782 | 21.67° C | 19% | 1024.6 hPa | - | - | - | - |
| 1777726182 | 20.56° C | 20% | 1024.7 hPa | - | - | - | - |
| 1777725582 | 21.11° C | 21% | 1024.9 hPa | - | - | - | - |
| 1777724982 | 21.11° C | 22% | 1024.9 hPa | - | - | - | - |
| 1777724382 | 21.11° C | 20% | 1025 hPa | - | - | - | - |
| 1777723785 | 21.11° C | 22% | 1025.1 hPa | - | - | - | - |
| 1777723402 | 20° C | 23% | 1025.2 hPa | - | - | - | - |
| 1777722803 | 20.56° C | 21% | 1025.3 hPa | - | - | - | - |
* Rain since midnight (hover to see other rain measurements)
** Current wind speed in m/s (hover to see current wind gust speed)